ケアンズ の空港の天気 - METARとTAF

ケアンズ国際空港 ( YBCS / CNS ) - オーストラリア クイーンズランド州ケアンズ
飛行場実況気象(Metar)
観測時間10/20 14:00 AEST (10/20 04:00 UTC)
風向・風速北 4m/s
視程10km以上
天気現象
なし
気温28℃
湿度62%
気圧1012hPa
METARYBCS 200400Z AUTO 01007KT 330V040 9999 // NCD 28/20 Q1012
過去の天気等 Google飛行場航空写真 Wunderground天気予報

過去48時間のMETAR

飛行場予報(TAF)
発表時間: 10/20 09:15 AEST (10/19 23:15 UTC)
予報対象時間: 20日10時 AEST ~ 21日10時 AEST
風向・風速北東 6m/s
視程10km以上
なし
20日19時 AEST から
風向・風速南東 4m/s
視程10km以上
全天の4割程度の雲 雲底高度 760m
20日22時 AEST から
風向・風速南 3m/s
視程10km以上
全天の4割程度の雲 雲底高度 670m
TAF YBCS 192315Z 2000/2024 05012KT CAVOK
FM200900 13008KT 9999 SCT025
FM201200 19005KT 9999 SCT022